CheckWX is a tool to help pilots better visualize weather data.  It is not intended as a substitute for an official pre-flight weather briefing.

09:15:07 UTC

VIAG METAR
Agra Airport
India
Current

45 mins ago

VIAG 170830Z 32006KT 6000 SCT025 FEW030TCU BKN250 35/27 Q1001 TEMPO 25015G25KT 2000 TSRA BKN015
Observed
Jul-17 @ 08:30 UTC
Wind
  • 320° at 6 KTS
Visibility
6,000 meters
Flight Rules
MVFR
Cloud Levels
  • Scattered at 2,500' AGL
  • Few at 3,000' AGL
  • Broken at 25,000' AGL
Temperature
35°C / 95°F
Dewpoint
27°C / 81°F
Heat Index
47°C / 116°F
Humidity
63%
Altimeter
29.56" Hg
Pressure
1000.92 hPa
Previous

2 hours ago

VIAG 170730Z 33007KT 6000 SCT025 BKN250 35/28 Q1002 NOSIG
Observed
Jul-17 @ 07:30 UTC
Wind
  • 330° at 7 KTS
Visibility
6,000 meters
Flight Rules
MVFR
Cloud Levels
  • Scattered at 2,500' AGL
  • Broken at 25,000' AGL
Temperature
35°C / 95°F
Dewpoint
28°C / 82°F
Heat Index
49°C / 120°F
Humidity
67%
Altimeter
29.59" Hg
Pressure
1001.92 hPa
Previous

3 hours ago

VIAG 170630Z 33006KT 6000 FEW030 SCT100 BKN250 34/28 Q1002 NOSIG
Observed
Jul-17 @ 06:30 UTC
Wind
  • 330° at 6 KTS
Visibility
6,000 meters
Flight Rules
MVFR
Cloud Levels
  • Few at 3,000' AGL
  • Scattered at 10,000' AGL
  • Broken at 25,000' AGL
Temperature
34°C / 93°F
Dewpoint
28°C / 82°F
Heat Index
47°C / 116°F
Humidity
71%
Altimeter
29.59" Hg
Pressure
1001.92 hPa